Terminal Aerodrome Forecast
Issued by NWS Charleston, SC

Home | Current Version | Previous Version | Text Only | Print | Product List | Glossary On
Versions: 1 2 3 4 5 6 7 8 9 10 11 12 13
000
FTUS42 KCHS 031724
TAFCHS
TAF
KCHS 031724Z 0318/0418 16008KT P6SM SCT060
     FM040100 VRB02KT P6SM SKC
     FM041500 11007KT P6SM FEW040=

USA.gov is the U.S. government's official web portal to all federal, state and local government web resources and services.